createdAt,value
2017-04-15T11:35:45.657Z,20.40
2017-04-15T11:36:45.722Z,20.00
2017-04-15T11:37:45.717Z,19.70
2017-04-15T11:38:45.696Z,19.60
2017-04-15T11:39:45.645Z,19.70
2017-04-15T11:40:46.338Z,19.70
2017-04-15T11:41:46.337Z,19.80
2017-04-15T11:42:46.299Z,19.80
2017-04-15T11:43:46.533Z,19.70
2017-04-15T11:44:46.475Z,19.50
2017-04-15T11:45:46.413Z,19.50
2017-04-15T11:46:46.412Z,19.50
2017-04-15T11:47:46.414Z,19.20
2017-04-15T11:48:46.339Z,19.20
2017-04-15T11:49:46.301Z,19.40
2017-04-15T11:50:46.226Z,19.60
2017-04-15T11:51:51.272Z,19.50
2017-04-15T11:52:52.252Z,19.30
2017-04-15T11:53:52.746Z,19.20
2017-04-15T11:54:53.430Z,19.30
2017-04-15T11:55:53.381Z,19.40
2017-04-15T11:56:54.214Z,19.50
2017-04-15T11:57:54.153Z,19.30
2017-04-15T11:58:54.146Z,19.20
2017-04-15T11:59:54.099Z,19.20
2017-04-15T12:00:54.039Z,19.20
2017-04-15T12:01:54.014Z,19.20
2017-04-15T12:02:53.975Z,19.00
2017-04-15T12:03:53.990Z,18.80
2017-04-15T12:04:53.953Z,18.50
2017-04-15T12:05:54.606Z,18.30
2017-04-15T12:06:54.741Z,18.10
2017-04-15T12:07:54.684Z,17.90
2017-04-15T12:08:55.388Z,17.70
2017-04-15T12:09:55.308Z,17.50
2017-04-15T12:10:55.265Z,17.40
2017-04-15T12:11:55.237Z,17.40
2017-04-15T12:12:55.190Z,17.40
2017-04-15T12:13:55.096Z,17.40
2017-04-15T12:14:55.057Z,17.40
2017-04-15T12:15:55.033Z,17.50
2017-04-15T12:16:55.041Z,17.60
2017-04-15T12:17:54.963Z,17.70
2017-04-15T12:18:54.903Z,17.80
2017-04-15T12:19:54.853Z,17.80
2017-04-15T12:20:54.848Z,17.80
2017-04-15T12:21:54.801Z,17.90
2017-04-15T12:22:55.440Z,18.20
2017-04-15T12:23:55.595Z,18.30
2017-04-15T12:24:55.540Z,18.40
2017-04-15T12:25:55.464Z,18.40
2017-04-15T12:26:55.376Z,18.40
2017-04-15T12:27:55.361Z,18.40
2017-04-15T12:28:55.261Z,18.50
2017-04-15T12:29:55.194Z,18.60
2017-04-15T12:30:55.148Z,18.60
2017-04-15T12:31:55.856Z,18.60
2017-04-15T12:32:55.846Z,18.60
2017-04-15T12:33:55.790Z,18.50
2017-04-15T12:34:56.456Z,18.40
2017-04-15T12:35:56.432Z,18.60
2017-04-15T12:36:56.412Z,18.80
2017-04-15T12:37:56.526Z,19.00
2017-04-15T12:38:56.508Z,19.40
2017-04-15T12:39:56.449Z,20.00
2017-04-15T12:40:57.130Z,20.30
2017-04-15T12:41:57.081Z,20.50
2017-04-15T12:42:57.032Z,20.70
2017-04-15T12:43:56.953Z,20.90
2017-04-15T12:44:56.917Z,21.00
2017-04-15T12:45:56.863Z,21.10
2017-04-15T12:46:56.829Z,21.10
2017-04-15T12:47:56.857Z,21.40
2017-04-15T12:48:56.817Z,21.60
2017-04-15T12:49:57.524Z,21.60
2017-04-15T12:50:57.469Z,21.90
2017-04-15T12:51:57.421Z,22.30
2017-04-15T12:52:57.439Z,22.40
2017-04-15T12:53:57.367Z,22.60
2017-04-15T12:54:58.088Z,22.70
2017-04-15T12:55:58.778Z,22.80
2017-04-15T12:56:58.753Z,22.90
2017-04-15T12:57:58.774Z,23.20
2017-04-15T12:58:58.717Z,23.10
2017-04-15T12:59:59.429Z,23.20
2017-04-15T13:00:59.384Z,23.20
2017-04-15T13:02:07.700Z,22.90
2017-04-15T13:03:07.701Z,22.70
2017-04-15T13:04:07.640Z,22.40
2017-04-15T13:05:07.629Z,22.10
2017-04-15T13:06:07.611Z,21.90
2017-04-15T13:07:07.573Z,21.60
2017-04-15T13:08:07.565Z,21.50
2017-04-15T13:09:07.532Z,21.30
2017-04-15T13:10:07.523Z,21.20
2017-04-15T13:11:07.477Z,21.10
2017-04-15T13:12:08.134Z,21.00
2017-04-15T13:13:08.836Z,21.00
2017-04-15T13:14:08.782Z,21.00
2017-04-15T13:15:08.754Z,20.90
2017-04-15T13:16:08.760Z,20.80
2017-04-15T13:17:08.727Z,20.40
2017-04-15T13:18:08.737Z,20.30
2017-04-15T13:19:08.760Z,20.40
2017-04-15T13:20:09.549Z,20.60
2017-04-15T13:21:09.488Z,20.80
2017-04-15T13:22:09.453Z,20.80
2017-04-15T13:23:09.461Z,20.90
2017-04-15T13:24:09.421Z,20.90
2017-04-15T13:25:09.378Z,20.60
2017-04-15T13:26:09.352Z,20.50
2017-04-15T13:27:10.077Z,20.40
2017-04-15T13:28:10.873Z,20.20
2017-04-15T13:29:10.937Z,20.00
2017-04-15T13:30:10.916Z,19.90
2017-04-15T13:31:11.652Z,19.90
2017-04-15T13:32:11.610Z,19.90
2017-04-15T13:33:11.630Z,19.80
2017-04-15T13:34:11.618Z,19.60
2017-04-15T13:35:11.605Z,19.40
2017-04-15T13:36:11.564Z,19.30
2017-04-15T13:37:12.250Z,19.20
2017-04-15T13:38:12.249Z,19.00
2017-04-15T13:39:12.437Z,18.90
2017-04-15T13:40:12.442Z,18.90
2017-04-15T13:41:12.379Z,18.80
2017-04-15T13:42:12.333Z,18.60
2017-04-15T13:43:13.087Z,18.50
2017-04-15T13:44:13.029Z,18.60
2017-04-15T13:45:13.030Z,18.60
2017-04-15T13:46:13.019Z,18.90
2017-04-15T13:47:12.992Z,19.00
2017-04-15T13:48:12.977Z,19.10
2017-04-15T13:49:12.947Z,19.30
2017-04-15T13:50:12.926Z,19.20
2017-04-15T13:51:13.057Z,19.10
2017-04-15T13:52:13.012Z,19.00
2017-04-15T13:53:13.695Z,18.80
2017-04-15T13:54:13.660Z,18.60
2017-04-15T13:55:13.624Z,18.40
2017-04-15T13:56:13.702Z,18.30
2017-04-15T13:57:13.656Z,18.30
2017-04-15T13:58:14.325Z,18.20
2017-04-15T13:59:14.293Z,18.30
2017-04-15T14:00:14.335Z,18.30
2017-04-15T14:01:14.482Z,18.30
2017-04-15T14:02:14.417Z,18.30
2017-04-15T14:03:14.382Z,18.40
2017-04-15T14:04:14.356Z,18.30
2017-04-15T14:05:14.318Z,18.40
2017-04-15T14:06:14.550Z,18.50
2017-04-15T14:07:14.560Z,18.70
2017-04-15T14:08:14.529Z,18.80
2017-04-15T14:09:14.505Z,19.00
2017-04-15T14:10:14.449Z,19.20
2017-04-15T14:11:14.485Z,19.40
2017-04-15T14:12:14.448Z,19.60
2017-04-15T14:13:14.464Z,19.90
2017-04-15T14:14:15.242Z,20.00
2017-04-15T14:15:15.202Z,20.30
2017-04-15T14:16:15.216Z,20.40
2017-04-15T14:17:15.175Z,20.60
2017-04-15T14:18:15.150Z,21.10
2017-04-15T14:19:15.123Z,21.80
2017-04-15T14:20:15.068Z,22.70
2017-04-15T14:21:14.980Z,23.50
2017-04-15T14:22:14.957Z,24.20
2017-04-15T14:23:14.897Z,24.70
2017-04-15T14:24:14.921Z,24.60
2017-04-15T14:25:14.857Z,24.20
2017-04-15T14:26:14.822Z,23.90
2017-04-15T14:27:14.792Z,23.60
2017-04-15T14:28:15.494Z,23.10
2017-04-15T14:29:15.424Z,23.30
2017-04-15T14:30:15.362Z,23.80
2017-04-15T14:31:15.311Z,24.00
2017-04-15T14:32:16.134Z,24.10
2017-04-15T14:33:16.140Z,24.40
2017-04-15T14:34:16.134Z,24.40
2017-04-15T14:35:16.116Z,24.20
2017-04-15T14:36:16.095Z,24.30
2017-04-15T14:37:16.074Z,24.30
2017-04-15T14:38:16.062Z,24.20
2017-04-15T14:39:16.077Z,24.20
2017-04-15T14:40:16.050Z,24.10
2017-04-15T14:41:16.036Z,23.70
2017-04-15T14:42:15.999Z,23.00
2017-04-15T14:43:16.189Z,22.80
2017-04-15T14:44:16.157Z,22.10
2017-04-15T14:45:16.168Z,21.60
2017-04-15T14:46:16.189Z,21.10
2017-04-15T14:47:16.182Z,20.70
2017-04-15T14:48:16.241Z,20.50
2017-04-15T14:49:16.185Z,20.30
2017-04-15T14:50:16.148Z,20.20
2017-04-15T14:51:16.146Z,20.00
2017-04-15T14:52:23.620Z,19.70
2017-04-15T14:53:23.617Z,19.70
2017-04-15T14:54:23.833Z,19.60
2017-04-15T14:55:24.546Z,19.30
2017-04-15T14:56:24.493Z,19.10
2017-04-15T14:57:24.449Z,19.00
2017-04-15T14:58:24.472Z,18.90
2017-04-15T14:59:24.494Z,18.80
2017-04-15T15:00:24.475Z,18.60
2017-04-15T15:01:24.413Z,18.50
2017-04-15T15:02:24.431Z,18.50
2017-04-15T15:03:24.408Z,18.50
2017-04-15T15:04:24.384Z,18.40
2017-04-15T15:05:24.384Z,18.40
2017-04-15T15:06:24.432Z,18.40
2017-04-15T15:07:25.178Z,18.20
2017-04-15T15:08:25.149Z,18.10
2017-04-15T15:09:25.153Z,18.10
2017-04-15T15:10:25.076Z,18.10
2017-04-15T15:11:26.040Z,18.10
2017-04-15T15:12:26.192Z,18.30
2017-04-15T15:13:26.164Z,18.30
2017-04-15T15:14:26.889Z,18.40
2017-04-15T15:15:26.909Z,18.50
2017-04-15T15:16:26.866Z,18.40
2017-04-15T15:17:27.574Z,18.30
2017-04-15T15:18:27.661Z,18.40
2017-04-15T15:19:27.657Z,18.30
2017-04-15T15:20:27.636Z,18.40
2017-04-15T15:21:27.599Z,18.40
2017-04-15T15:22:27.636Z,18.40
2017-04-15T15:23:27.914Z,18.50
2017-04-15T15:24:27.870Z,18.50
2017-04-15T15:25:28.578Z,18.60
2017-04-15T15:26:28.517Z,18.60
2017-04-15T15:27:28.644Z,18.50
2017-04-15T15:28:28.641Z,18.40
2017-04-15T15:29:28.665Z,18.40
2017-04-15T15:30:28.665Z,18.40
2017-04-15T15:31:28.609Z,18.40
2017-04-15T15:32:28.719Z,18.50
2017-04-15T15:33:28.683Z,18.50
2017-04-15T15:34:28.667Z,18.30
2017-04-15T15:35:28.655Z,18.20
2017-04-15T15:36:29.357Z,18.20
2017-04-15T15:37:29.306Z,18.20
2017-04-15T15:38:29.452Z,18.20
2017-04-15T15:39:29.420Z,18.30
2017-04-15T15:40:29.412Z,18.30
2017-04-15T15:41:30.116Z,18.20
2017-04-15T15:42:30.256Z,18.10
2017-04-15T15:43:30.226Z,18.00
2017-04-15T15:44:30.192Z,17.90
2017-04-15T15:45:30.177Z,17.90
2017-04-15T15:46:30.120Z,17.90
2017-04-15T15:47:30.121Z,17.90
2017-04-15T15:48:30.095Z,17.90
2017-04-15T15:49:30.094Z,17.90
2017-04-15T15:50:30.149Z,17.90
2017-04-15T15:51:30.121Z,17.80
2017-04-15T15:52:30.216Z,17.70
2017-04-15T15:53:32.100Z,17.60
2017-04-15T15:54:32.082Z,17.70
2017-04-15T15:55:32.037Z,17.70
2017-04-15T15:56:32.178Z,17.80
2017-04-15T15:57:32.192Z,17.80
2017-04-15T15:58:32.879Z,17.70
2017-04-15T15:59:32.812Z,17.90
2017-04-15T16:00:33.532Z,17.90
2017-04-15T16:01:33.530Z,17.90
2017-04-15T16:02:33.953Z,17.90
2017-04-15T16:03:34.579Z,18.00
2017-04-15T16:04:35.206Z,18.10
2017-04-15T16:05:35.191Z,18.10
2017-04-15T16:06:35.140Z,18.10
2017-04-15T16:07:35.156Z,18.10
2017-04-15T16:08:35.098Z,18.10
2017-04-15T16:09:35.818Z,18.00
2017-04-15T16:10:36.644Z,18.00
2017-04-15T16:11:36.633Z,18.10
2017-04-15T16:12:36.690Z,18.00
2017-04-15T16:13:37.330Z,18.00
2017-04-15T16:14:37.452Z,17.90
2017-04-15T16:15:37.452Z,17.90
2017-04-15T16:16:37.440Z,17.80
2017-04-15T16:17:38.334Z,17.70
2017-04-15T16:18:39.009Z,17.60
2017-04-15T16:19:38.983Z,17.50
2017-04-15T16:20:38.956Z,17.40
2017-04-15T16:21:38.900Z,17.30
2017-04-15T16:22:39.645Z,17.20
2017-04-15T16:23:39.593Z,17.20
2017-04-15T16:24:39.593Z,17.10
2017-04-15T16:25:39.551Z,17.20
2017-04-15T16:26:40.248Z,17.10
2017-04-15T16:27:40.166Z,17.10
2017-04-15T16:28:40.141Z,17.00
2017-04-15T16:29:40.152Z,17.00
2017-04-15T16:30:40.151Z,17.00
2017-04-15T16:31:40.107Z,17.00
2017-04-15T16:32:40.814Z,16.90
2017-04-15T16:33:40.763Z,16.80
2017-04-15T16:34:40.792Z,16.70
2017-04-15T16:35:40.701Z,16.60
2017-04-15T16:36:40.649Z,16.50
2017-04-15T16:37:40.797Z,16.50
2017-04-15T16:38:40.767Z,16.40
2017-04-15T16:39:40.730Z,16.40
2017-04-15T16:40:40.681Z,16.40
2017-04-15T16:41:41.396Z,16.40
2017-04-15T16:42:42.119Z,16.40
2017-04-15T16:43:42.862Z,16.40
2017-04-15T16:44:42.810Z,16.40
2017-04-15T16:45:42.775Z,16.30
2017-04-15T16:46:42.797Z,16.20
2017-04-15T16:47:42.803Z,16.20
2017-04-15T16:48:42.760Z,16.10
2017-04-15T16:49:42.749Z,16.00
2017-04-15T16:50:42.741Z,16.00
2017-04-15T16:51:42.818Z,16.00
2017-04-15T16:52:42.789Z,15.90
2017-04-15T16:53:42.826Z,16.00
2017-04-15T16:54:42.796Z,15.90
2017-04-15T16:55:42.784Z,15.90
2017-04-15T16:56:42.985Z,15.90
2017-04-15T16:57:42.993Z,15.90
2017-04-15T16:58:42.925Z,15.90
2017-04-15T16:59:42.913Z,15.90
2017-04-15T17:00:42.935Z,15.80
2017-04-15T17:01:42.916Z,15.80
2017-04-15T17:02:42.887Z,15.80
2017-04-15T17:03:42.949Z,15.70
2017-04-15T17:04:42.921Z,15.70
2017-04-15T17:05:42.892Z,15.70
2017-04-15T17:06:43.638Z,15.70
2017-04-15T17:07:43.612Z,15.70
2017-04-15T17:08:43.568Z,15.70
2017-04-15T17:09:43.541Z,15.60
2017-04-15T17:10:44.237Z,15.60
2017-04-15T17:11:44.333Z,15.60
2017-04-15T17:12:45.168Z,15.60
2017-04-15T17:13:45.441Z,15.50
2017-04-15T17:14:45.458Z,15.50
2017-04-15T17:15:45.519Z,15.50
2017-04-15T17:16:46.306Z,15.40
2017-04-15T17:17:46.353Z,15.40
2017-04-15T17:18:46.352Z,15.40
2017-04-15T17:19:46.363Z,15.40
2017-04-15T17:20:46.424Z,15.40
2017-04-15T17:21:46.500Z,15.30
2017-04-15T17:22:46.516Z,15.30
2017-04-15T17:23:46.484Z,15.30
2017-04-15T17:24:46.475Z,15.30
2017-04-15T17:25:46.474Z,15.30
2017-04-15T17:26:46.497Z,15.30
2017-04-15T17:27:46.497Z,15.30
2017-04-15T17:28:46.461Z,15.30
2017-04-15T17:29:46.448Z,15.30
2017-04-15T17:30:46.412Z,15.30
2017-04-15T17:31:46.402Z,15.30
2017-04-15T17:32:46.388Z,15.30
2017-04-15T17:33:46.336Z,15.30
2017-04-15T17:34:46.288Z,15.30
2017-04-15T17:35:46.307Z,15.20
2017-04-15T17:36:46.331Z,15.20
2017-04-15T17:37:46.272Z,15.20
2017-04-15T17:38:46.254Z,15.20
2017-04-15T17:39:46.317Z,15.20
2017-04-15T17:40:46.295Z,15.20
2017-04-15T17:41:46.301Z,15.20
2017-04-15T17:42:46.271Z,15.10
2017-04-15T17:43:46.266Z,15.10
2017-04-15T17:44:46.267Z,15.10
2017-04-15T17:45:46.240Z,15.10
2017-04-15T17:46:46.227Z,15.00
2017-04-15T17:47:46.178Z,15.00
2017-04-15T17:48:46.177Z,15.00
2017-04-15T17:49:46.869Z,15.00
2017-04-15T17:50:46.876Z,15.00
2017-04-15T17:51:46.848Z,15.00
2017-04-15T17:52:46.829Z,14.90
2017-04-15T17:53:46.784Z,14.90
2017-04-15T17:54:46.750Z,14.90
2017-04-15T17:55:46.752Z,14.80
2017-04-15T17:56:46.729Z,14.80
2017-04-15T17:57:47.452Z,14.80
2017-04-15T17:58:48.176Z,14.80
2017-04-15T17:59:48.925Z,14.70
2017-04-15T18:00:48.913Z,14.70
2017-04-15T18:01:49.633Z,14.70
2017-04-15T18:02:49.628Z,14.80
2017-04-15T18:03:49.565Z,14.70
2017-04-15T18:04:49.506Z,14.70
2017-04-15T18:05:49.559Z,14.70
2017-04-15T18:06:49.499Z,14.70
2017-04-15T18:07:49.460Z,14.70
2017-04-15T18:08:49.452Z,14.70
2017-04-15T18:09:49.418Z,14.60
2017-04-15T18:10:49.472Z,14.60
2017-04-15T18:12:49.528Z,14.60
2017-04-15T18:13:49.561Z,14.60
2017-04-15T18:14:49.538Z,14.60
2017-04-15T18:15:49.496Z,14.60
2017-04-15T18:16:49.469Z,14.60
2017-04-15T18:17:49.449Z,14.50
2017-04-15T18:18:49.465Z,14.50
2017-04-15T18:19:49.447Z,14.50
2017-04-15T18:20:49.417Z,14.50
2017-04-15T18:21:49.404Z,14.50
2017-04-15T18:22:49.393Z,14.50
2017-04-15T18:23:49.397Z,14.50
2017-04-15T18:24:49.500Z,14.40
2017-04-15T18:25:50.376Z,14.40
2017-04-15T18:26:50.344Z,14.40
2017-04-15T18:27:50.350Z,14.40
2017-04-15T18:28:50.305Z,14.40
2017-04-15T18:29:50.346Z,14.40
2017-04-15T18:30:50.294Z,14.40
2017-04-15T18:31:50.302Z,14.40
2017-04-15T18:32:50.310Z,14.40
2017-04-15T18:33:50.299Z,14.40
2017-04-15T18:34:50.365Z,14.40
2017-04-15T18:35:51.043Z,14.30
2017-04-15T18:36:51.036Z,14.40
2017-04-15T18:37:51.006Z,14.40
2017-04-15T18:38:51.742Z,14.40
2017-04-15T18:39:51.758Z,14.40
2017-04-15T18:40:51.750Z,14.40
2017-04-15T18:41:51.776Z,14.40
2017-04-15T18:42:51.754Z,14.40
2017-04-15T18:43:52.473Z,14.30
2017-04-15T18:44:53.209Z,14.30
2017-04-15T18:45:53.185Z,14.40
2017-04-15T18:46:53.193Z,14.40
2017-04-15T18:47:53.337Z,14.30
2017-04-15T18:48:53.261Z,14.30
2017-04-15T18:49:53.249Z,14.20
2017-04-15T18:50:53.214Z,14.20
2017-04-15T18:51:53.170Z,14.10
2017-04-15T18:52:53.115Z,14.10
2017-04-15T18:53:53.085Z,14.10
2017-04-15T18:54:53.222Z,14.10
2017-04-15T18:55:53.181Z,14.10
2017-04-15T18:56:53.924Z,14.00
2017-04-15T18:57:53.905Z,14.10
2017-04-15T18:58:54.589Z,14.00
2017-04-15T18:59:54.561Z,14.00
2017-04-15T19:00:54.535Z,14.00
2017-04-15T19:01:55.253Z,14.00
2017-04-15T19:02:55.932Z,14.00
2017-04-15T19:03:55.958Z,14.00
2017-04-15T19:04:55.989Z,13.90
2017-04-15T19:05:55.976Z,13.90
2017-04-15T19:06:55.951Z,14.00
2017-04-15T19:07:56.037Z,13.90
2017-04-15T19:08:56.061Z,14.00
2017-04-15T19:09:56.047Z,13.90
2017-04-15T19:10:56.025Z,13.90
2017-04-15T19:11:56.029Z,13.90
2017-04-15T19:12:55.996Z,13.90
2017-04-15T19:13:56.285Z,13.90
2017-04-15T19:14:56.460Z,13.90
2017-04-15T19:15:56.473Z,13.90
2017-04-15T19:16:56.458Z,13.80
2017-04-15T19:17:56.461Z,13.90
2017-04-15T19:18:56.547Z,13.80
2017-04-15T19:19:56.500Z,13.80
2017-04-15T19:20:57.213Z,13.80
2017-04-15T19:21:57.183Z,13.80
2017-04-15T19:22:57.144Z,13.80
2017-04-15T19:23:58.129Z,13.80
2017-04-15T19:24:58.463Z,13.80
2017-04-15T19:25:58.482Z,13.80
2017-04-15T19:26:58.457Z,13.70
2017-04-15T19:27:58.433Z,13.70
2017-04-15T19:28:59.077Z,13.70
2017-04-15T19:29:59.053Z,13.60
2017-04-15T19:30:59.072Z,13.60
2017-04-15T19:31:59.013Z,13.60
2017-04-15T19:32:59.069Z,13.60
2017-04-15T19:33:59.084Z,13.60
2017-04-15T19:34:59.128Z,13.60
2017-04-15T19:35:59.146Z,13.60
2017-04-15T19:36:59.096Z,13.60
2017-04-15T19:37:59.090Z,13.60
2017-04-15T19:38:59.065Z,13.70
2017-04-15T19:39:59.745Z,13.70
2017-04-15T19:40:59.775Z,13.70
2017-04-15T19:41:59.804Z,13.70
2017-04-15T19:42:59.775Z,13.70
2017-04-15T19:43:59.746Z,13.70
2017-04-15T19:44:59.710Z,13.70
2017-04-15T19:45:59.683Z,13.70
2017-04-15T19:46:59.640Z,13.70
2017-04-15T19:47:59.644Z,13.70
2017-04-15T19:48:59.609Z,13.80
2017-04-15T19:49:59.658Z,13.80
2017-04-15T19:50:59.612Z,13.80
2017-04-15T19:51:59.671Z,13.80
2017-04-15T19:52:59.670Z,13.80
2017-04-15T19:53:59.701Z,13.80
2017-04-15T19:54:59.701Z,13.80
2017-04-15T19:55:59.650Z,13.80
2017-04-15T19:56:59.599Z,13.70
2017-04-15T19:57:59.584Z,13.70
2017-04-15T19:58:59.546Z,13.60
2017-04-15T20:00:00.285Z,13.60
2017-04-15T20:01:00.304Z,13.60
2017-04-15T20:02:00.284Z,13.60
2017-04-15T20:03:00.384Z,13.60
2017-04-15T20:04:01.078Z,13.60
2017-04-15T20:05:01.050Z,13.60
2017-04-15T20:06:01.018Z,13.60
2017-04-15T20:07:01.033Z,13.60
2017-04-15T20:08:01.017Z,13.60
2017-04-15T20:09:00.974Z,13.70
2017-04-15T20:10:00.969Z,13.70
2017-04-15T20:11:00.960Z,13.70
2017-04-15T20:12:01.682Z,13.60
2017-04-15T20:13:02.460Z,13.60
2017-04-15T20:14:03.195Z,13.60
2017-04-15T20:15:03.204Z,13.60
2017-04-15T20:16:03.141Z,13.60
2017-04-15T20:17:03.865Z,13.50
2017-04-15T20:18:04.073Z,13.50
2017-04-15T20:19:04.783Z,13.50
2017-04-15T20:20:04.786Z,13.50
2017-04-15T20:21:04.733Z,13.50
2017-04-15T20:22:04.685Z,13.50
2017-04-15T20:23:04.666Z,13.50
2017-04-15T20:24:04.766Z,13.50
2017-04-15T20:25:04.794Z,13.50
2017-04-15T20:26:04.748Z,13.50
2017-04-15T20:27:04.722Z,13.50
2017-04-15T20:28:04.721Z,13.50
2017-04-15T20:29:04.702Z,13.50
2017-04-15T20:30:04.692Z,13.50
2017-04-15T20:31:04.686Z,13.50
2017-04-15T20:32:04.641Z,13.50
2017-04-15T20:33:05.419Z,13.50
2017-04-15T20:34:05.410Z,13.50
2017-04-15T20:35:06.138Z,13.50
2017-04-15T20:36:06.861Z,13.50
2017-04-15T20:37:06.863Z,13.50
2017-04-15T20:38:06.838Z,13.50
2017-04-15T20:39:06.795Z,13.50
2017-04-15T20:40:06.867Z,13.50
2017-04-15T20:41:06.825Z,13.40
2017-04-15T20:42:06.825Z,13.40
2017-04-15T20:43:06.776Z,13.40
2017-04-15T20:44:06.873Z,13.30
2017-04-15T20:45:06.856Z,13.30
2017-04-15T20:46:06.869Z,13.30
2017-04-15T20:47:06.795Z,13.20
2017-04-15T20:48:06.771Z,13.20
2017-04-15T20:49:06.745Z,13.20
2017-04-15T20:50:06.733Z,13.20
2017-04-15T20:51:06.762Z,13.20
2017-04-15T20:52:07.497Z,13.10
2017-04-15T20:53:07.512Z,13.20
2017-04-15T20:54:07.483Z,13.20
2017-04-15T20:55:07.433Z,13.20
2017-04-15T20:56:07.463Z,13.20
2017-04-15T20:57:07.421Z,13.20
2017-04-15T20:58:07.371Z,13.30
2017-04-15T20:59:07.351Z,13.30
2017-04-15T21:00:07.418Z,13.20
2017-04-15T21:01:07.485Z,13.20
2017-04-15T21:02:07.488Z,13.20
2017-04-15T21:03:07.455Z,13.20
2017-04-15T21:04:08.207Z,13.20
2017-04-15T21:05:08.162Z,13.20
2017-04-15T21:06:08.219Z,13.20
2017-04-15T21:07:08.212Z,13.20
2017-04-15T21:08:08.230Z,13.20
2017-04-15T21:09:08.182Z,13.20
2017-04-15T21:10:08.171Z,13.10
2017-04-15T21:11:08.131Z,13.20
2017-04-15T21:12:08.153Z,13.20
2017-04-15T21:13:08.117Z,13.20
2017-04-15T21:14:08.093Z,13.20
2017-04-15T21:15:08.103Z,13.20
2017-04-15T21:16:08.109Z,13.30
2017-04-15T21:17:08.233Z,13.20
2017-04-15T21:18:08.170Z,13.20
2017-04-15T21:19:08.876Z,13.10
2017-04-15T21:20:08.830Z,13.10
2017-04-15T21:21:08.781Z,13.10
2017-04-15T21:22:08.983Z,13.10
2017-04-15T21:23:08.948Z,13.10
2017-04-15T21:24:08.897Z,13.10
2017-04-15T21:25:08.849Z,13.00
2017-04-15T21:26:09.004Z,13.00
2017-04-15T21:27:09.066Z,13.00
2017-04-15T21:28:09.039Z,13.00
2017-04-15T21:29:09.060Z,13.00
2017-04-15T21:30:09.081Z,13.10
2017-04-15T21:31:09.053Z,13.00
2017-04-15T21:32:09.116Z,13.00
2017-04-15T21:33:09.113Z,13.00
2017-04-15T21:34:09.115Z,13.00
2017-04-15T21:35:09.074Z,13.00
2017-04-15T21:36:09.022Z,12.90
2017-04-15T21:37:08.990Z,12.90
2017-04-15T21:38:08.912Z,12.90
2017-04-15T21:39:09.639Z,12.80
2017-04-15T21:40:10.403Z,12.80
2017-04-15T21:41:10.377Z,12.90
2017-04-15T21:42:10.353Z,12.90
2017-04-15T21:43:10.395Z,12.90
2017-04-15T21:44:10.405Z,12.90
2017-04-15T21:45:10.354Z,12.90
2017-04-15T21:46:10.294Z,12.90
2017-04-15T21:47:10.237Z,12.90
2017-04-15T21:48:10.226Z,12.90
2017-04-15T21:49:10.276Z,12.90
2017-04-15T21:50:10.274Z,12.90
2017-04-15T21:51:10.270Z,12.90
2017-04-15T21:52:10.251Z,12.90
2017-04-15T21:53:10.232Z,12.90
2017-04-15T21:54:10.261Z,12.90
2017-04-15T21:55:10.993Z,12.90
2017-04-15T21:56:10.971Z,12.90
2017-04-15T21:57:10.914Z,12.80
2017-04-15T21:58:10.892Z,12.80
2017-04-15T21:59:10.888Z,12.80
2017-04-15T22:00:10.946Z,12.80
2017-04-15T22:01:10.916Z,12.70
2017-04-15T22:02:11.659Z,12.70
2017-04-15T22:03:11.619Z,12.70
2017-04-15T22:04:11.630Z,12.70
2017-04-15T22:05:11.793Z,12.60
2017-04-15T22:06:11.794Z,12.60
2017-04-15T22:07:11.783Z,12.60
2017-04-15T22:08:11.750Z,12.60
2017-04-15T22:09:11.840Z,12.60
2017-04-15T22:10:12.550Z,12.60
2017-04-15T22:11:12.653Z,12.60
2017-04-15T22:12:16.820Z,12.60
2017-04-15T22:13:21.709Z,12.60
2017-04-15T22:14:26.983Z,12.50
2017-04-15T22:15:32.928Z,12.50
2017-04-15T22:16:32.943Z,12.50
2017-04-15T22:17:38.324Z,12.60
2017-04-15T22:18:43.588Z,12.60
2017-04-15T22:19:43.534Z,12.60
2017-04-15T22:20:43.928Z,12.60
2017-04-15T22:21:44.303Z,12.60
2017-04-15T22:22:44.314Z,12.60
2017-04-15T22:23:44.353Z,12.60
2017-04-15T22:24:45.093Z,12.60
2017-04-15T22:25:45.069Z,12.50
2017-04-15T22:26:45.009Z,12.50
2017-04-15T22:27:44.990Z,12.60
2017-04-15T22:28:45.713Z,12.50
2017-04-15T22:29:46.397Z,12.50
2017-04-15T22:30:46.377Z,12.40
2017-04-15T22:31:46.358Z,12.40
2017-04-15T22:32:47.058Z,12.40
2017-04-15T22:33:47.021Z,12.40
2017-04-15T22:34:47.053Z,12.40
2017-04-15T22:35:47.029Z,12.40
2017-04-15T22:36:46.988Z,12.40
2017-04-15T22:37:47.721Z,12.30
2017-04-15T22:38:47.710Z,12.30
2017-04-15T22:39:47.697Z,12.30
2017-04-15T22:40:47.657Z,12.20
2017-04-15T22:41:47.687Z,12.30
2017-04-15T22:42:47.653Z,12.20
2017-04-15T22:43:48.364Z,12.20
2017-04-15T22:44:48.336Z,12.10
2017-04-15T22:45:48.304Z,12.20
2017-04-15T22:46:48.275Z,12.20
2017-04-15T22:47:48.237Z,12.30
2017-04-15T22:48:48.218Z,12.30
2017-04-15T22:49:48.177Z,12.20
2017-04-15T22:50:48.188Z,12.10
2017-04-15T22:51:48.149Z,12.10
2017-04-15T22:52:48.130Z,12.10
2017-04-15T22:53:48.903Z,12.10
2017-04-15T22:54:48.867Z,12.10
2017-04-15T22:55:48.861Z,12.10
2017-04-15T22:56:48.853Z,12.10
2017-04-15T22:57:48.828Z,12.10
2017-04-15T22:58:48.825Z,12.10
2017-04-15T22:59:48.787Z,12.00
2017-04-15T23:00:48.833Z,12.10
2017-04-15T23:01:48.845Z,12.10
2017-04-15T23:02:48.849Z,12.10
2017-04-15T23:03:48.857Z,12.10
2017-04-15T23:04:48.845Z,12.10
2017-04-15T23:05:48.814Z,12.10
2017-04-15T23:06:48.832Z,12.10
2017-04-15T23:07:48.807Z,12.20
2017-04-15T23:08:48.824Z,12.20
2017-04-15T23:09:48.824Z,12.20
2017-04-15T23:10:48.779Z,12.10
2017-04-15T23:11:48.768Z,12.00
2017-04-15T23:12:48.788Z,12.00
2017-04-15T23:13:48.790Z,12.00
2017-04-15T23:14:54.185Z,12.00
2017-04-15T23:16:58.160Z,12.00
2017-04-15T23:17:58.230Z,12.00
2017-04-15T23:18:58.277Z,12.00
2017-04-15T23:19:58.338Z,12.00
2017-04-15T23:20:58.237Z,12.00
2017-04-15T23:21:58.195Z,12.00
2017-04-15T23:22:58.178Z,12.00
2017-04-15T23:23:58.154Z,11.90
2017-04-15T23:24:58.281Z,11.90
2017-04-15T23:25:59.073Z,11.90
2017-04-15T23:26:59.065Z,11.90
2017-04-15T23:27:59.023Z,11.90
2017-04-15T23:28:59.014Z,11.90
2017-04-15T23:29:59.021Z,11.90
2017-04-15T23:30:59.804Z,11.80
2017-04-15T23:31:59.799Z,11.80
2017-04-15T23:32:59.796Z,11.80
2017-04-15T23:33:59.755Z,11.80
2017-04-15T23:34:59.813Z,11.80
2017-04-15T23:35:59.825Z,11.90
2017-04-15T23:36:59.804Z,11.90
2017-04-15T23:37:59.785Z,11.90
2017-04-15T23:38:59.733Z,11.80
2017-04-15T23:39:59.701Z,11.80
2017-04-15T23:40:59.640Z,11.80
2017-04-15T23:41:59.700Z,11.80
2017-04-15T23:42:59.677Z,11.80
2017-04-15T23:43:59.660Z,11.80
2017-04-15T23:44:59.641Z,11.80
2017-04-15T23:46:00.408Z,11.80
2017-04-15T23:47:00.428Z,11.80
2017-04-15T23:48:00.382Z,11.70
2017-04-15T23:49:01.075Z,11.70
2017-04-15T23:50:01.025Z,11.70
2017-04-15T23:51:00.984Z,11.70
2017-04-15T23:52:01.018Z,11.70
2017-04-15T23:53:00.986Z,11.70
2017-04-15T23:54:00.957Z,11.70
2017-04-15T23:55:00.949Z,11.60
2017-04-15T23:56:00.968Z,11.70
2017-04-15T23:57:00.975Z,11.70
2017-04-15T23:58:00.996Z,11.70
2017-04-15T23:59:00.998Z,11.70
